ANS901 SAAV-SAEZ
Flight info
| Callsign | ANS901 |
|---|---|
| Flight time | 0h 38m |
| Altitude | 24000 |
| Route | MUPIS W21 ROS UT672 MULTA UW24 SNT SNT7U |
| Aircraft | B737/M-MSDFGHILRVWSB1/LB1 |
Departure
| Time | 2026-04-30 05:45 |
|---|---|
| Airport | Sauce Viejo Airport (SAAV) |
Arrival
| Time | 2026-04-30 06:24 |
|---|---|
| Airport | Ezeiza International Airport - Ministro Pistarini (SAEZ) |
| Time | Latitude | Longitude | Altitude | Speed | Heading |
|---|---|---|---|---|---|
| 2026-04-30 05:14 | -31.70940 | -60.80684 | 64 ft | 0 kts | 163° |
| 2026-04-30 05:40 | -31.70944 | -60.80691 | 64 ft | 2 kts | 241° |
| 2026-04-30 05:40 | -31.70938 | -60.80705 | 60 ft | 2 kts | 302° |
| 2026-04-30 05:40 | -31.70929 | -60.80720 | 61 ft | 3 kts | 313° |
| 2026-04-30 05:40 | -31.70889 | -60.80714 | 56 ft | 10 kts | 23° |
| 2026-04-30 05:41 | -31.70818 | -60.80686 | 56 ft | 11 kts | 356° |
| 2026-04-30 05:41 | -31.70777 | -60.80758 | 59 ft | 11 kts | 294° |
| 2026-04-30 05:41 | -31.70747 | -60.80839 | 57 ft | 11 kts | 294° |
| 2026-04-30 05:41 | -31.70718 | -60.80917 | 62 ft | 10 kts | 293° |
| 2026-04-30 05:42 | -31.70655 | -60.80919 | 65 ft | 11 kts | 22° |
| 2026-04-30 05:42 | -31.70554 | -60.80869 | 64 ft | 20 kts | 22° |
| 2026-04-30 05:42 | -31.70430 | -60.80808 | 63 ft | 20 kts | 22° |
| 2026-04-30 05:42 | -31.70304 | -60.80745 | 62 ft | 19 kts | 22° |
| 2026-04-30 05:43 | -31.70185 | -60.80686 | 59 ft | 13 kts | 23° |
| 2026-04-30 05:43 | -31.70135 | -60.80643 | 62 ft | 6 kts | 335° |
| 2026-04-30 05:43 | -31.70143 | -60.80664 | 61 ft | 3 kts | 218° |
| 2026-04-30 05:43 | -31.70157 | -60.80673 | 58 ft | 0 kts | 203° |
| 2026-04-30 05:45 | -31.70262 | -60.80725 | 62 ft | 49 kts | 202° |
| 2026-04-30 05:45 | -31.70800 | -60.80990 | 57 ft | 119 kts | 202° |
| 2026-04-30 05:45 | -31.71737 | -60.81448 | 166 ft | 164 kts | 202° |
| 2026-04-30 05:45 | -31.72830 | -60.81960 | 793 ft | 174 kts | 202° |
| 2026-04-30 05:46 | -31.74039 | -60.82276 | 1391 ft | 188 kts | 172° |
| 2026-04-30 05:46 | -31.75299 | -60.81627 | 1828 ft | 213 kts | 147° |
| 2026-04-30 05:46 | -31.76617 | -60.80635 | 2163 ft | 234 kts | 147° |
| 2026-04-30 05:46 | -31.78006 | -60.79598 | 2802 ft | 243 kts | 147° |
| 2026-04-30 05:47 | -31.79508 | -60.78508 | 3252 ft | 264 kts | 148° |
| 2026-04-30 05:47 | -31.81145 | -60.77382 | 3935 ft | 277 kts | 150° |
| 2026-04-30 05:47 | -31.82791 | -60.76296 | 5060 ft | 274 kts | 152° |
| 2026-04-30 05:47 | -31.84490 | -60.75200 | 5889 ft | 285 kts | 153° |
| 2026-04-30 05:48 | -31.86247 | -60.74102 | 6880 ft | 284 kts | 153° |
| 2026-04-30 05:48 | -31.87985 | -60.73025 | 7925 ft | 283 kts | 154° |
| 2026-04-30 05:48 | -31.89758 | -60.71932 | 8667 ft | 293 kts | 155° |
| 2026-04-30 05:48 | -31.91567 | -60.70826 | 9625 ft | 294 kts | 156° |
| 2026-04-30 05:49 | -31.93395 | -60.69710 | 10472 ft | 298 kts | 156° |
| 2026-04-30 05:49 | -31.95264 | -60.68568 | 11150 ft | 308 kts | 156° |
| 2026-04-30 05:49 | -31.97215 | -60.67358 | 11575 ft | 328 kts | 156° |
| 2026-04-30 05:49 | -31.99304 | -60.66056 | 11844 ft | 350 kts | 156° |
| 2026-04-30 05:50 | -32.01480 | -60.64707 | 12585 ft | 354 kts | 156° |
| 2026-04-30 05:50 | -32.03675 | -60.63361 | 13490 ft | 356 kts | 157° |
| 2026-04-30 05:50 | -32.05881 | -60.62011 | 14222 ft | 362 kts | 157° |
| 2026-04-30 05:50 | -32.08158 | -60.60627 | 14730 ft | 373 kts | 158° |
| 2026-04-30 05:51 | -32.10510 | -60.59212 | 15353 ft | 380 kts | 158° |
| 2026-04-30 05:51 | -32.12842 | -60.57756 | 16253 ft | 380 kts | 158° |
| 2026-04-30 05:51 | -32.15159 | -60.56297 | 17000 ft | 384 kts | 158° |
| 2026-04-30 05:51 | -32.17537 | -60.54809 | 17688 ft | 389 kts | 159° |
| 2026-04-30 05:52 | -32.19953 | -60.53307 | 18352 ft | 395 kts | 159° |
| 2026-04-30 05:52 | -32.22397 | -60.51793 | 18953 ft | 399 kts | 159° |
| 2026-04-30 05:52 | -32.24861 | -60.50269 | 19577 ft | 402 kts | 159° |
| 2026-04-30 05:52 | -32.27351 | -60.48730 | 20206 ft | 405 kts | 159° |
| 2026-04-30 05:53 | -32.29859 | -60.47179 | 20813 ft | 408 kts | 159° |
| 2026-04-30 05:53 | -32.32386 | -60.45616 | 21430 ft | 412 kts | 159° |
| 2026-04-30 05:53 | -32.34926 | -60.44042 | 22059 ft | 414 kts | 159° |
| 2026-04-30 05:53 | -32.37483 | -60.42455 | 22804 ft | 413 kts | 160° |
| 2026-04-30 05:54 | -32.40028 | -60.40872 | 23585 ft | 412 kts | 160° |
| 2026-04-30 05:54 | -32.42573 | -60.39291 | 23903 ft | 412 kts | 160° |
| 2026-04-30 05:54 | -32.45107 | -60.37714 | 24033 ft | 412 kts | 160° |
| 2026-04-30 05:54 | -32.47611 | -60.36157 | 24025 ft | 410 kts | 160° |
| 2026-04-30 05:55 | -32.50139 | -60.34583 | 24033 ft | 409 kts | 160° |
| 2026-04-30 05:55 | -32.52667 | -60.33009 | 24051 ft | 409 kts | 160° |
| 2026-04-30 05:55 | -32.55185 | -60.31441 | 24037 ft | 409 kts | 160° |
| 2026-04-30 05:55 | -32.57699 | -60.29873 | 24040 ft | 408 kts | 160° |
| 2026-04-30 05:56 | -32.60214 | -60.28304 | 24034 ft | 408 kts | 160° |
| 2026-04-30 05:56 | -32.62729 | -60.26734 | 24032 ft | 408 kts | 160° |
| 2026-04-30 05:56 | -32.65238 | -60.25167 | 24031 ft | 408 kts | 160° |
| 2026-04-30 05:56 | -32.67751 | -60.23597 | 24030 ft | 408 kts | 160° |
| 2026-04-30 05:57 | -32.70265 | -60.22025 | 24031 ft | 408 kts | 160° |
| 2026-04-30 05:57 | -32.72787 | -60.20448 | 24031 ft | 408 kts | 160° |
| 2026-04-30 05:57 | -32.75304 | -60.18873 | 24030 ft | 409 kts | 160° |
| 2026-04-30 05:57 | -32.77822 | -60.17295 | 24030 ft | 409 kts | 160° |
| 2026-04-30 05:58 | -32.80338 | -60.15718 | 24029 ft | 409 kts | 160° |
| 2026-04-30 05:58 | -32.82858 | -60.14137 | 24029 ft | 409 kts | 160° |
| 2026-04-30 05:58 | -32.85352 | -60.12571 | 24031 ft | 410 kts | 160° |
| 2026-04-30 05:58 | -32.87902 | -60.10969 | 24031 ft | 410 kts | 160° |
| 2026-04-30 05:59 | -32.90395 | -60.09402 | 24030 ft | 410 kts | 160° |
| 2026-04-30 05:59 | -32.92917 | -60.07815 | 24043 ft | 410 kts | 160° |
| 2026-04-30 05:59 | -32.95441 | -60.06226 | 24036 ft | 410 kts | 160° |
| 2026-04-30 05:59 | -32.97964 | -60.04636 | 24033 ft | 410 kts | 160° |
| 2026-04-30 06:00 | -33.00488 | -60.03046 | 24031 ft | 410 kts | 160° |
| 2026-04-30 06:00 | -33.03004 | -60.01459 | 24033 ft | 409 kts | 160° |
| 2026-04-30 06:00 | -33.05521 | -59.99870 | 24035 ft | 409 kts | 160° |
| 2026-04-30 06:00 | -33.08031 | -59.98284 | 24035 ft | 409 kts | 160° |
| 2026-04-30 06:01 | -33.10544 | -59.96696 | 24035 ft | 408 kts | 160° |
| 2026-04-30 06:01 | -33.13061 | -59.95104 | 24048 ft | 409 kts | 160° |
| 2026-04-30 06:01 | -33.15575 | -59.93514 | 24042 ft | 409 kts | 160° |
| 2026-04-30 06:01 | -33.18088 | -59.91923 | 24039 ft | 408 kts | 160° |
| 2026-04-30 06:02 | -33.20592 | -59.90336 | 24035 ft | 408 kts | 160° |
| 2026-04-30 06:02 | -33.23078 | -59.88760 | 24031 ft | 408 kts | 160° |
| 2026-04-30 06:02 | -33.25587 | -59.87168 | 24024 ft | 408 kts | 160° |
| 2026-04-30 06:02 | -33.28089 | -59.85580 | 24030 ft | 408 kts | 160° |
| 2026-04-30 06:03 | -33.30595 | -59.83988 | 24035 ft | 408 kts | 160° |
| 2026-04-30 06:03 | -33.33139 | -59.82371 | 24049 ft | 408 kts | 161° |
| 2026-04-30 06:03 | -33.35646 | -59.80777 | 24043 ft | 408 kts | 160° |
| 2026-04-30 06:03 | -33.38120 | -59.79202 | 24040 ft | 408 kts | 160° |
| 2026-04-30 06:04 | -33.40626 | -59.77605 | 24035 ft | 408 kts | 160° |
| 2026-04-30 06:04 | -33.43134 | -59.76007 | 24034 ft | 408 kts | 160° |
| 2026-04-30 06:04 | -33.45641 | -59.74407 | 24035 ft | 408 kts | 160° |
| 2026-04-30 06:05 | -33.50650 | -59.71209 | 24050 ft | 408 kts | 160° |
| 2026-04-30 06:05 | -33.53153 | -59.69609 | 24044 ft | 408 kts | 161° |
| 2026-04-30 06:05 | -33.55661 | -59.68005 | 24038 ft | 407 kts | 161° |
| 2026-04-30 06:05 | -33.58156 | -59.66408 | 24032 ft | 407 kts | 161° |
| 2026-04-30 06:06 | -33.60657 | -59.64807 | 24043 ft | 407 kts | 161° |
| 2026-04-30 06:06 | -33.63157 | -59.63205 | 24041 ft | 407 kts | 161° |
| 2026-04-30 06:06 | -33.65624 | -59.61624 | 24028 ft | 407 kts | 161° |
| 2026-04-30 06:06 | -33.68120 | -59.60024 | 24045 ft | 407 kts | 161° |
| 2026-04-30 06:07 | -33.70624 | -59.58417 | 24060 ft | 407 kts | 161° |
| 2026-04-30 06:07 | -33.73120 | -59.56814 | 24052 ft | 407 kts | 161° |
| 2026-04-30 06:07 | -33.75615 | -59.55210 | 24042 ft | 407 kts | 161° |
| 2026-04-30 06:07 | -33.78115 | -59.53601 | 24030 ft | 401 kts | 161° |
| 2026-04-30 06:08 | -33.80560 | -59.52021 | 23752 ft | 397 kts | 161° |
| 2026-04-30 06:08 | -33.82925 | -59.50342 | 23529 ft | 397 kts | 152° |
| 2026-04-30 06:08 | -33.85074 | -59.48246 | 23143 ft | 396 kts | 148° |
| 2026-04-30 06:08 | -33.87164 | -59.46103 | 22604 ft | 394 kts | 148° |
| 2026-04-30 06:09 | -33.89242 | -59.43959 | 22074 ft | 393 kts | 148° |
| 2026-04-30 06:09 | -33.91316 | -59.41823 | 21573 ft | 391 kts | 148° |
| 2026-04-30 06:09 | -33.93384 | -59.39703 | 21105 ft | 387 kts | 148° |
| 2026-04-30 06:09 | -33.95433 | -59.37612 | 20647 ft | 385 kts | 148° |
| 2026-04-30 06:10 | -33.97483 | -59.35529 | 19871 ft | 390 kts | 148° |
| 2026-04-30 06:10 | -33.99604 | -59.33390 | 18880 ft | 404 kts | 148° |
| 2026-04-30 06:10 | -34.01766 | -59.31203 | 18163 ft | 406 kts | 147° |
| 2026-04-30 06:10 | -34.03946 | -59.28994 | 16990 ft | 415 kts | 147° |
| 2026-04-30 06:11 | -34.06182 | -59.26727 | 15980 ft | 421 kts | 146° |
| 2026-04-30 06:11 | -34.08383 | -59.24485 | 15271 ft | 417 kts | 146° |
| 2026-04-30 06:11 | -34.10610 | -59.22210 | 14680 ft | 410 kts | 146° |
| 2026-04-30 06:11 | -34.12713 | -59.20057 | 14448 ft | 394 kts | 146° |
| 2026-04-30 06:12 | -34.14809 | -59.17912 | 13985 ft | 385 kts | 146° |
| 2026-04-30 06:12 | -34.16157 | -59.16536 | 13658 ft | 381 kts | 146° |
| 2026-04-30 06:12 | -34.18137 | -59.14513 | 13128 ft | 366 kts | 146° |
| 2026-04-30 06:12 | -34.20042 | -59.12566 | 12653 ft | 350 kts | 146° |
| 2026-04-30 06:13 | -34.22445 | -59.10110 | 12042 ft | 333 kts | 146° |
| 2026-04-30 06:13 | -34.23625 | -59.08904 | 11749 ft | 325 kts | 146° |
| 2026-04-30 06:13 | -34.25322 | -59.07171 | 11341 ft | 314 kts | 146° |
| 2026-04-30 06:13 | -34.26969 | -59.05489 | 10927 ft | 305 kts | 146° |
| 2026-04-30 06:14 | -34.28570 | -59.03855 | 10523 ft | 300 kts | 145° |
| 2026-04-30 06:14 | -34.30153 | -59.02239 | 10332 ft | 293 kts | 145° |
| 2026-04-30 06:14 | -34.31699 | -59.00659 | 10204 ft | 292 kts | 145° |
| 2026-04-30 06:14 | -34.33254 | -58.99071 | 10083 ft | 291 kts | 145° |
| 2026-04-30 06:15 | -34.34783 | -58.97508 | 9740 ft | 291 kts | 144° |
| 2026-04-30 06:15 | -34.36319 | -58.95935 | 9384 ft | 288 kts | 144° |
| 2026-04-30 06:15 | -34.37846 | -58.94369 | 9035 ft | 286 kts | 144° |
| 2026-04-30 06:15 | -34.39357 | -58.92818 | 8693 ft | 284 kts | 144° |
| 2026-04-30 06:16 | -34.40862 | -58.91273 | 8356 ft | 282 kts | 144° |
| 2026-04-30 06:16 | -34.42355 | -58.89739 | 8016 ft | 280 kts | 144° |
| 2026-04-30 06:16 | -34.43835 | -58.88218 | 7691 ft | 279 kts | 144° |
| 2026-04-30 06:16 | -34.45310 | -58.86701 | 7379 ft | 277 kts | 143° |
| 2026-04-30 06:17 | -34.46778 | -58.85191 | 7047 ft | 276 kts | 143° |
| 2026-04-30 06:17 | -34.48241 | -58.83685 | 6722 ft | 275 kts | 143° |
| 2026-04-30 06:17 | -34.49694 | -58.82188 | 6396 ft | 274 kts | 143° |
| 2026-04-30 06:17 | -34.51145 | -58.80694 | 6049 ft | 273 kts | 143° |
| 2026-04-30 06:18 | -34.52589 | -58.79206 | 5694 ft | 271 kts | 142° |
| 2026-04-30 06:18 | -34.54063 | -58.77685 | 5362 ft | 270 kts | 142° |
| 2026-04-30 06:18 | -34.55491 | -58.76211 | 5037 ft | 269 kts | 142° |
| 2026-04-30 06:18 | -34.56914 | -58.74743 | 4705 ft | 268 kts | 142° |
| 2026-04-30 06:19 | -34.58332 | -58.73278 | 4379 ft | 266 kts | 141° |
| 2026-04-30 06:19 | -34.59739 | -58.71824 | 4059 ft | 265 kts | 141° |
| 2026-04-30 06:19 | -34.61136 | -58.70380 | 3749 ft | 263 kts | 141° |
| 2026-04-30 06:19 | -34.62525 | -58.68942 | 3433 ft | 261 kts | 141° |
| 2026-04-30 06:20 | -34.63989 | -58.67427 | 3126 ft | 259 kts | 140° |
| 2026-04-30 06:20 | -34.65347 | -58.66020 | 3045 ft | 252 kts | 140° |
| 2026-04-30 06:20 | -34.66651 | -58.64669 | 3015 ft | 239 kts | 140° |
| 2026-04-30 06:20 | -34.67879 | -58.63396 | 3003 ft | 225 kts | 140° |
| 2026-04-30 06:21 | -34.69032 | -58.62200 | 3005 ft | 211 kts | 140° |
| 2026-04-30 06:21 | -34.70136 | -58.61055 | 2919 ft | 212 kts | 140° |
| 2026-04-30 06:21 | -34.71257 | -58.59892 | 2649 ft | 209 kts | 140° |
| 2026-04-30 06:21 | -34.72342 | -58.58761 | 2304 ft | 202 kts | 140° |
| 2026-04-30 06:22 | -34.73376 | -58.57674 | 1975 ft | 192 kts | 140° |
| 2026-04-30 06:22 | -34.74355 | -58.56635 | 1594 ft | 182 kts | 140° |
| 2026-04-30 06:22 | -34.75284 | -58.55676 | 1316 ft | 167 kts | 141° |
| 2026-04-30 06:22 | -34.76205 | -58.54968 | 1087 ft | 152 kts | 157° |
| 2026-04-30 06:23 | -34.77218 | -58.54609 | 812 ft | 152 kts | 168° |
| 2026-04-30 06:23 | -34.78250 | -58.54287 | 659 ft | 154 kts | 163° |
| 2026-04-30 06:23 | -34.79278 | -58.53932 | 468 ft | 154 kts | 164° |
| 2026-04-30 06:23 | -34.80283 | -58.53592 | 236 ft | 145 kts | 163° |
| 2026-04-30 06:24 | -34.81224 | -58.53262 | 85 ft | 133 kts | 163° |
| 2026-04-30 06:24 | -34.81978 | -58.52997 | 68 ft | 92 kts | 164° |
| 2026-04-30 06:24 | -34.82323 | -58.52887 | 83 ft | 19 kts | 198° |
| 2026-04-30 06:24 | -34.82321 | -58.53028 | 83 ft | 18 kts | 282° |
| 2026-04-30 06:25 | -34.82294 | -58.53172 | 81 ft | 17 kts | 283° |
| 2026-04-30 06:25 | -34.82268 | -58.53310 | 84 ft | 16 kts | 283° |
| 2026-04-30 06:25 | -34.82234 | -58.53437 | 84 ft | 16 kts | 313° |
| 2026-04-30 06:25 | -34.82137 | -58.53498 | 69 ft | 16 kts | 333° |
| 2026-04-30 06:26 | -34.82036 | -58.53558 | 67 ft | 16 kts | 334° |
| 2026-04-30 06:26 | -34.81939 | -58.53613 | 71 ft | 15 kts | 337° |
| 2026-04-30 06:26 | -34.81844 | -58.53664 | 71 ft | 15 kts | 333° |
| 2026-04-30 06:26 | -34.81755 | -58.53715 | 71 ft | 14 kts | 335° |
| 2026-04-30 06:27 | -34.81671 | -58.53769 | 74 ft | 13 kts | 334° |
| 2026-04-30 06:27 | -34.81595 | -58.53728 | 74 ft | 13 kts | 43° |
| 2026-04-30 06:27 | -34.81526 | -58.53661 | 69 ft | 12 kts | 30° |
| 2026-04-30 06:27 | -34.81448 | -58.53618 | 73 ft | 12 kts | 20° |
| 2026-04-30 06:28 | -34.81367 | -58.53591 | 67 ft | 12 kts | 7° |
| 2026-04-30 06:28 | -34.81286 | -58.53587 | 67 ft | 12 kts | 359° |
| 2026-04-30 06:28 | -34.81207 | -58.53589 | 67 ft | 11 kts | 5° |
| 2026-04-30 06:28 | -34.81134 | -58.53560 | 75 ft | 11 kts | 29° |
| 2026-04-30 06:29 | -34.81062 | -58.53566 | 73 ft | 11 kts | 342° |
| 2026-04-30 06:29 | -34.80992 | -58.53591 | 75 ft | 10 kts | 343° |
| 2026-04-30 06:29 | -34.80933 | -58.53622 | 72 ft | 8 kts | 296° |
| 2026-04-30 06:29 | -34.80949 | -58.53690 | 70 ft | 8 kts | 254° |
| 2026-04-30 06:30 | -34.80958 | -58.53728 | 66 ft | 3 kts | 253° |
| 2026-04-30 06:30 | -34.80960 | -58.53733 | 69 ft | 0 kts | 253° |